Overview Statistics Trail Chart Weather Telemetry Raw packets
 

This is the latest recevied weather packets stored in our database for station/object N0MR. If no packets are shown the sender has not sent any weather packets the latest 10 day(s).

<< 10 11 12 13 14 15 16 >>
Time Temp. Humidity Pressure Rain* Wind** Luminosity Snow
1788461193 23.33° C 62% 1012.3 hPa 0 mm - - -
1788460592 23.33° C 62% 1012.3 hPa 0 mm - - -
1788459993 23.33° C 60% 1012.1 hPa 0 mm - - -
1788459396 23.33° C 60% 1012.1 hPa 0 mm - - -
1788458793 23.33° C 60% 1012.3 hPa 0 mm - - -
1788458193 23.33° C 60% 1012.3 hPa 0 mm - - -
1788457599 23.33° C 62% 1012.3 hPa 0 mm - - -
1788456994 23.33° C 62% 1012.3 hPa 0 mm - - -
1788456407 23.33° C 62% 1012.4 hPa 0 mm - - -
1788455794 23.33° C 62% 1012.4 hPa 0 mm - - -
1788455197 23.33° C 63% 1012.4 hPa 0 mm - - -
1788454600 22.78° C 65% 1012.4 hPa 0 mm - - -
1788453996 22.78° C 65% 1012.4 hPa 0 mm - - -
1788453410 22.78° C 65% 1012.7 hPa 0 mm - - -
1788452795 22.78° C 65% 1012.7 hPa 0 mm - - -
1788452194 22.22° C 67% 1012.9 hPa 0 mm - - -
1788451597 22.22° C 67% 1012.9 hPa 0 mm - - -
1788450995 21.11° C 71% 1013.1 hPa 0 mm - - -
1788450396 21.11° C 71% 1013.1 hPa 0 mm - - -
1788449796 20° C 75% 1013.1 hPa 0 mm - - -
1788449196 20° C 75% 1013.1 hPa 0 mm - - -
1788447395 17.78° C 86% 1013.4 hPa 0 mm - - -
1788446796 17.78° C 86% 1013.4 hPa 0 mm - - -
1788446193 16.67° C 90% 1013.5 hPa 0 mm - - -
1788445616 16.67° C 90% 1013.5 hPa 0 mm - - -

* Rain latest hour (hover to see other rain measurements)
** Current wind speed in m/s (hover to see current wind gust speed)